EZS41MU LSGG-EKCH
Flight info
| Callsign | EZS41MU |
|---|---|
| Flight time | N/A |
| Altitude | 24000 |
| Route | ARBOS1N/04 ARBOS/N0436F380 DCT PENDU DCT UZCUX DCT SOSAD DCT OBOKA/N0435F390 DCT EXOBA DCT MEGAR P605 GESKA Z711 MONAK |
| Aircraft | A320/M-SDE2E3FGHIJ1RWXYZ/LB1 |
Departure
| Time | N/A |
|---|---|
| Airport | Geneva International Airport (LSGG) |
Arrival
| Time | 2026-04-30 18:13 |
|---|---|
| Airport | Copenhagen Kastrup Airport (EKCH) |
| Time | Latitude | Longitude | Altitude | Speed | Heading |
|---|---|---|---|---|---|
| 2026-04-30 17:39 | 53.31869 | 10.18572 | 37424 ft | 409 kts | 37° |
| 2026-04-30 17:41 | 53.49907 | 10.41986 | 36558 ft | 410 kts | 37° |
| 2026-04-30 17:42 | 53.54415 | 10.47863 | 36047 ft | 410 kts | 37° |
| 2026-04-30 17:42 | 53.61138 | 10.56687 | 35304 ft | 406 kts | 37° |
| 2026-04-30 17:43 | 53.65572 | 10.62540 | 34818 ft | 403 kts | 37° |
| 2026-04-30 17:44 | 53.72168 | 10.71246 | 34046 ft | 402 kts | 37° |
| 2026-04-30 17:44 | 53.78919 | 10.80208 | 33236 ft | 417 kts | 37° |
| 2026-04-30 17:46 | 53.90218 | 10.95274 | 31929 ft | 409 kts | 37° |
| 2026-04-30 17:47 | 53.99054 | 11.07143 | 30920 ft | 401 kts | 37° |
| 2026-04-30 17:48 | 54.07692 | 11.18796 | 29868 ft | 393 kts | 37° |
| 2026-04-30 17:48 | 54.14055 | 11.27432 | 29025 ft | 387 kts | 37° |
| 2026-04-30 17:49 | 54.22398 | 11.38778 | 28455 ft | 382 kts | 37° |
| 2026-04-30 17:50 | 54.30703 | 11.50154 | 28453 ft | 382 kts | 37° |
| 2026-04-30 17:52 | 54.43143 | 11.67331 | 28042 ft | 380 kts | 37° |
| 2026-04-30 17:53 | 54.53294 | 11.81403 | 25887 ft | 368 kts | 37° |
| 2026-04-30 17:54 | 54.61132 | 11.92371 | 23979 ft | 358 kts | 38° |
| 2026-04-30 17:55 | 54.69091 | 12.01682 | 22162 ft | 338 kts | 33° |
| 2026-04-30 17:56 | 54.76835 | 12.10652 | 20205 ft | 332 kts | 33° |
| 2026-04-30 17:57 | 54.82545 | 12.17297 | 18892 ft | 327 kts | 33° |
| 2026-04-30 17:58 | 54.88069 | 12.23749 | 16703 ft | 313 kts | 34° |
| 2026-04-30 17:59 | 54.95146 | 12.32031 | 13661 ft | 300 kts | 35° |
| 2026-04-30 18:00 | 55.02002 | 12.40077 | 10945 ft | 293 kts | 34° |
| 2026-04-30 18:00 | 55.06857 | 12.45731 | 9740 ft | 270 kts | 34° |
| 2026-04-30 18:01 | 55.09963 | 12.49371 | 8970 ft | 267 kts | 34° |
| 2026-04-30 18:02 | 55.15102 | 12.50662 | 7813 ft | 272 kts | 334° |
| 2026-04-30 18:02 | 55.19870 | 12.45387 | 6792 ft | 258 kts | 330° |
| 2026-04-30 18:03 | 55.24120 | 12.40529 | 5791 ft | 238 kts | 330° |
| 2026-04-30 18:04 | 55.28247 | 12.35924 | 4783 ft | 228 kts | 330° |
| 2026-04-30 18:05 | 55.33241 | 12.30441 | 4095 ft | 204 kts | 330° |
| 2026-04-30 18:06 | 55.38304 | 12.28620 | 4004 ft | 188 kts | 25° |
| 2026-04-30 18:07 | 55.42356 | 12.34475 | 4013 ft | 189 kts | 39° |
| 2026-04-30 18:08 | 55.45326 | 12.39011 | 3665 ft | 188 kts | 39° |
| 2026-04-30 18:09 | 55.48935 | 12.44537 | 2770 ft | 184 kts | 37° |
| 2026-04-30 18:10 | 55.52587 | 12.50145 | 1796 ft | 158 kts | 36° |
| 2026-04-30 18:11 | 55.55649 | 12.54846 | 1008 ft | 143 kts | 36° |
| 2026-04-30 18:11 | 55.57892 | 12.58298 | 416 ft | 141 kts | 38° |
| 2026-04-30 18:12 | 55.59973 | 12.61511 | 25 ft | 99 kts | 41° |
| 2026-04-30 18:13 | 55.60535 | 12.62299 | 26 ft | 22 kts | 19° |
| 2026-04-30 18:13 | 55.60909 | 12.62580 | 24 ft | 22 kts | 41° |
| 2026-04-30 18:14 | 55.61142 | 12.62940 | 24 ft | 22 kts | 41° |
| 2026-04-30 18:15 | 55.61524 | 12.63531 | 24 ft | 26 kts | 41° |
| 2026-04-30 18:15 | 55.61917 | 12.64107 | 24 ft | 20 kts | 24° |
| 2026-04-30 18:16 | 55.62109 | 12.64268 | 24 ft | 8 kts | 25° |
| 2026-04-30 18:16 | 55.62186 | 12.64334 | 22 ft | 8 kts | 26° |
| 2026-04-30 18:17 | 55.62241 | 12.64393 | 23 ft | 11 kts | 46° |
| 2026-04-30 18:17 | 55.62285 | 12.64525 | 23 ft | 15 kts | 69° |
| 2026-04-30 18:17 | 55.62342 | 12.64900 | 25 ft | 16 kts | 118° |
| 2026-04-30 18:18 | 55.62282 | 12.65059 | 24 ft | 12 kts | 123° |
| 2026-04-30 18:18 | 55.62308 | 12.65190 | 25 ft | 13 kts | 27° |
| 2026-04-30 18:18 | 55.62410 | 12.65203 | 25 ft | 15 kts | 6° |
| 2026-04-30 18:18 | 55.62442 | 12.65362 | 24 ft | 16 kts | 89° |
| 2026-04-30 18:19 | 55.62443 | 12.65568 | 25 ft | 17 kts | 89° |
| 2026-04-30 18:19 | 55.62446 | 12.65774 | 24 ft | 12 kts | 89° |
| 2026-04-30 18:19 | 55.62487 | 12.65839 | 24 ft | 9 kts | 358° |
| 2026-04-30 18:19 | 55.62518 | 12.65837 | 24 ft | 1 kts | 359° |
| 2026-04-30 18:20 | 55.62523 | 12.65837 | 24 ft | 0 kts | 358° |